createdAt,value
2023-04-03T00:00:46.729Z,99.90
2023-04-03T00:01:48.936Z,99.90
2023-04-03T00:02:51.094Z,99.90
2023-04-03T00:03:53.585Z,99.90
2023-04-03T00:04:56.043Z,99.90
2023-04-03T00:05:58.298Z,99.90
2023-04-03T00:07:00.391Z,99.90
2023-04-03T00:08:03.177Z,99.90
2023-04-03T00:09:05.431Z,99.90
2023-04-03T00:10:08.233Z,99.90
2023-04-03T00:11:10.848Z,99.90
2023-04-03T00:12:12.917Z,99.90
2023-04-03T00:13:15.729Z,99.90
2023-04-03T00:14:17.604Z,99.90
2023-04-03T00:15:19.921Z,99.90
2023-04-03T00:16:21.825Z,99.90
2023-04-03T00:17:24.075Z,99.90
2023-04-03T00:18:26.437Z,99.90
2023-04-03T00:19:28.573Z,99.90
2023-04-03T00:20:31.171Z,99.90
2023-04-03T00:21:33.306Z,99.90
2023-04-03T00:22:35.528Z,99.90
2023-04-03T00:23:37.717Z,99.90
2023-04-03T00:24:39.871Z,99.90
2023-04-03T00:25:41.957Z,99.90
2023-04-03T00:26:43.678Z,99.90
2023-04-03T00:27:45.406Z,99.90
2023-04-03T00:28:47.109Z,99.90
2023-04-03T00:29:49.121Z,99.90
2023-04-03T00:30:51.887Z,99.90
2023-04-03T00:31:53.637Z,99.90
2023-04-03T00:32:55.957Z,99.90
2023-04-03T00:34:07.074Z,99.90
2023-04-03T00:35:09.538Z,99.90
2023-04-03T00:36:12.264Z,99.90
2023-04-03T00:37:14.100Z,99.90
2023-04-03T00:38:16.476Z,99.90
2023-04-03T00:39:18.197Z,99.90
2023-04-03T00:40:20.772Z,99.90
2023-04-03T00:41:22.580Z,99.90
2023-04-03T00:42:25.138Z,99.90
2023-04-03T00:43:29.861Z,99.90
2023-04-03T00:44:34.647Z,99.90
2023-04-03T00:45:44.682Z,99.90
2023-04-03T00:46:46.447Z,99.90
2023-04-03T00:47:48.378Z,99.90
2023-04-03T00:48:50.574Z,99.90
2023-04-03T00:49:53.522Z,99.90
2023-04-03T00:50:56.494Z,99.90
2023-04-03T00:51:59.785Z,99.90
2023-04-03T00:53:02.357Z,99.90
2023-04-03T00:54:07.133Z,99.90
2023-04-03T00:55:10.638Z,99.90
2023-04-03T00:56:16.208Z,99.90
2023-04-03T00:57:18.189Z,99.90
2023-04-03T00:58:21.938Z,99.90
2023-04-03T00:59:28.036Z,99.90
2023-04-03T01:00:29.856Z,99.90
2023-04-03T01:01:32.704Z,99.90
2023-04-03T01:02:34.642Z,99.90
2023-04-03T01:03:36.732Z,99.90
2023-04-03T01:04:41.915Z,99.90
2023-04-03T01:05:43.802Z,99.90
2023-04-03T01:06:45.494Z,99.90
2023-04-03T01:07:49.759Z,99.90
2023-04-03T01:08:51.964Z,99.90
2023-04-03T01:09:58.285Z,99.90
2023-04-03T01:11:00.437Z,99.90
2023-04-03T01:12:20.548Z,99.90
2023-04-03T01:13:32.767Z,99.90
2023-04-03T01:14:34.532Z,99.90
2023-04-03T01:15:36.373Z,99.90
2023-04-03T01:16:38.213Z,99.90
2023-04-03T01:18:02.695Z,99.90
2023-04-03T01:19:07.348Z,99.90
2023-04-03T01:20:33.204Z,99.90
2023-04-03T01:22:18.206Z,99.90
2023-04-03T01:23:50.749Z,99.90
2023-04-03T01:24:54.231Z,99.90
2023-04-03T01:25:58.236Z,99.90
2023-04-03T01:27:02.262Z,99.90
2023-04-03T01:28:05.519Z,99.90
2023-04-03T01:29:07.310Z,99.90
2023-04-03T01:30:09.661Z,99.90
2023-04-03T01:31:23.036Z,99.90
2023-04-03T01:32:24.875Z,99.90
2023-04-03T01:33:26.918Z,99.90
2023-04-03T01:34:29.569Z,99.90
2023-04-03T01:35:31.317Z,99.90
2023-04-03T01:36:33.264Z,99.90
2023-04-03T01:37:35.214Z,99.90
2023-04-03T01:38:36.992Z,99.90
2023-04-03T01:39:38.746Z,99.90
2023-04-03T01:40:40.906Z,99.90
2023-04-03T01:41:42.661Z,99.90
2023-04-03T01:42:44.432Z,99.90
2023-04-03T01:43:46.225Z,99.90
2023-04-03T01:44:48.260Z,99.90
2023-04-03T01:45:55.408Z,99.90
2023-04-03T01:46:57.211Z,99.90
2023-04-03T01:47:59.127Z,99.90
2023-04-03T01:49:01.042Z,99.90
2023-04-03T01:50:02.847Z,99.90
2023-04-03T01:51:04.702Z,99.90
2023-04-03T01:52:06.524Z,99.90
2023-04-03T01:53:09.517Z,99.90
2023-04-03T01:54:11.480Z,99.90
2023-04-03T01:55:13.225Z,99.90
2023-04-03T01:56:15.360Z,99.90
2023-04-03T01:57:17.615Z,99.90
2023-04-03T01:58:19.620Z,99.90
2023-04-03T01:59:21.412Z,99.90
2023-04-03T02:00:23.320Z,99.90
2023-04-03T02:01:26.790Z,99.90
2023-04-03T02:02:28.640Z,99.90
2023-04-03T02:03:30.747Z,99.90
2023-04-03T02:04:32.658Z,99.90
2023-04-03T02:05:34.500Z,99.90
2023-04-03T02:06:36.274Z,99.90
2023-04-03T02:07:38.021Z,99.90
2023-04-03T02:08:39.847Z,99.90
2023-04-03T02:09:41.735Z,99.90
2023-04-03T02:10:43.457Z,99.90
2023-04-03T02:11:45.298Z,99.90
2023-04-03T02:12:47.128Z,99.90
2023-04-03T02:13:48.893Z,99.90
2023-04-03T02:14:50.720Z,99.90
2023-04-03T02:15:52.490Z,99.90
2023-04-03T02:16:54.532Z,99.90
2023-04-03T02:17:56.351Z,99.90
2023-04-03T02:18:58.198Z,99.90
2023-04-03T02:19:59.937Z,99.90
2023-04-03T02:21:01.739Z,99.90
2023-04-03T02:22:06.647Z,99.90
2023-04-03T02:23:08.391Z,99.90
2023-04-03T02:24:10.250Z,99.90
2023-04-03T02:25:12.728Z,99.90
2023-04-03T02:26:16.243Z,99.90
2023-04-03T02:27:18.235Z,99.90
2023-04-03T02:28:19.984Z,99.90
2023-04-03T02:29:21.814Z,99.90
2023-04-03T02:30:23.540Z,99.90
2023-04-03T02:31:25.377Z,99.90
2023-04-03T02:32:27.297Z,99.90
2023-04-03T02:33:29.434Z,99.90
2023-04-03T02:34:31.422Z,99.90
2023-04-03T02:35:33.201Z,99.90
2023-04-03T02:36:35.255Z,99.90
2023-04-03T02:37:37.244Z,99.90
2023-04-03T02:38:39.028Z,99.90
2023-04-03T02:39:40.878Z,99.90
2023-04-03T02:40:42.585Z,99.90
2023-04-03T02:41:44.326Z,99.90
2023-04-03T02:42:46.152Z,99.90
2023-04-03T02:43:47.893Z,99.90
2023-04-03T02:44:49.627Z,99.90
2023-04-03T02:45:51.616Z,99.90
2023-04-03T02:46:53.403Z,99.90
2023-04-03T02:47:55.297Z,99.90
2023-04-03T02:48:57.048Z,99.90
2023-04-03T02:49:58.833Z,99.90
2023-04-03T02:51:00.584Z,99.90
2023-04-03T02:52:02.398Z,99.90
2023-04-03T02:53:04.201Z,99.90
2023-04-03T02:54:06.086Z,99.90
2023-04-03T02:55:08.315Z,99.90
2023-04-03T02:56:10.101Z,99.90
2023-04-03T02:57:11.969Z,99.90
2023-04-03T02:58:13.830Z,99.90
2023-04-03T02:59:15.637Z,99.90
2023-04-03T03:00:17.747Z,99.90
2023-04-03T03:01:19.807Z,99.90
2023-04-03T03:02:22.120Z,99.90
2023-04-03T03:03:23.966Z,99.90
2023-04-03T03:04:25.872Z,99.90
2023-04-03T03:05:28.432Z,99.90
2023-04-03T03:06:30.640Z,99.90
2023-04-03T03:07:32.415Z,99.90
2023-04-03T03:08:34.490Z,99.90
2023-04-03T03:09:36.426Z,99.90
2023-04-03T03:10:38.808Z,99.90
2023-04-03T03:11:40.774Z,99.90
2023-04-03T03:12:42.930Z,99.90
2023-04-03T03:13:46.205Z,99.90
2023-04-03T03:14:48.664Z,99.90
2023-04-03T03:15:50.441Z,99.90
2023-04-03T03:16:52.645Z,99.90
2023-04-03T03:17:54.502Z,99.90
2023-04-03T03:18:57.789Z,99.90
2023-04-03T03:19:59.768Z,99.90
2023-04-03T03:21:03.342Z,99.90
2023-04-03T03:22:05.132Z,99.90
2023-04-03T03:23:06.981Z,99.90
2023-04-03T03:24:08.880Z,99.90
2023-04-03T03:25:10.650Z,99.90
2023-04-03T03:26:13.035Z,99.90
2023-04-03T03:27:14.756Z,99.90
2023-04-03T03:28:16.509Z,99.90
2023-04-03T03:29:18.214Z,99.90
2023-04-03T03:30:20.148Z,99.90
2023-04-03T03:31:21.986Z,99.90
2023-04-03T03:32:23.809Z,99.90
2023-04-03T03:33:26.286Z,99.90
2023-04-03T03:34:28.038Z,99.90
2023-04-03T03:35:29.803Z,99.90
2023-04-03T03:36:31.711Z,99.90
2023-04-03T03:37:33.491Z,99.90
2023-04-03T03:38:35.310Z,99.90
2023-04-03T03:39:37.023Z,99.90
2023-04-03T03:40:38.892Z,99.90
2023-04-03T03:41:40.813Z,99.90
2023-04-03T03:42:42.621Z,99.90
2023-04-03T03:43:44.469Z,99.90
2023-04-03T03:44:46.366Z,99.90
2023-04-03T03:45:52.745Z,99.90
2023-04-03T03:46:54.577Z,99.90
2023-04-03T03:47:56.446Z,99.90
2023-04-03T03:48:58.491Z,99.90
2023-04-03T03:50:00.355Z,99.90
2023-04-03T03:51:02.152Z,99.90
2023-04-03T03:52:03.955Z,99.90
2023-04-03T03:53:06.169Z,99.90
2023-04-03T03:54:08.412Z,99.90
2023-04-03T03:55:10.128Z,99.90
2023-04-03T03:56:12.157Z,99.90
2023-04-03T03:57:13.983Z,99.90
2023-04-03T03:58:15.787Z,99.90
2023-04-03T03:59:17.753Z,99.90
2023-04-03T04:00:19.834Z,99.90
2023-04-03T04:01:21.699Z,99.90
2023-04-03T04:02:23.603Z,99.90
2023-04-03T04:03:25.664Z,99.90
2023-04-03T04:04:27.446Z,99.90
2023-04-03T04:05:29.315Z,99.90
2023-04-03T04:06:31.053Z,99.90
2023-04-03T04:07:32.916Z,99.90
2023-04-03T04:08:34.808Z,99.90
2023-04-03T04:09:36.568Z,99.90
2023-04-03T04:10:39.307Z,99.90
2023-04-03T04:11:41.526Z,99.90
2023-04-03T04:12:43.447Z,99.90
2023-04-03T04:13:45.557Z,99.90
2023-04-03T04:14:47.795Z,99.90
2023-04-03T04:15:49.689Z,99.90
2023-04-03T04:16:51.756Z,99.90
2023-04-03T04:17:54.372Z,99.90
2023-04-03T04:18:56.206Z,99.90
2023-04-03T04:19:57.957Z,99.90
2023-04-03T04:20:59.764Z,99.90
2023-04-03T04:22:01.997Z,99.90
2023-04-03T04:23:03.820Z,99.90
2023-04-03T04:24:06.209Z,99.90
2023-04-03T04:25:08.315Z,99.90
2023-04-03T04:26:10.257Z,99.90
2023-04-03T04:27:12.108Z,99.90
2023-04-03T04:28:13.875Z,99.90
2023-04-03T04:29:15.650Z,99.90
2023-04-03T04:30:17.452Z,99.90
2023-04-03T04:31:19.223Z,99.90
2023-04-03T04:32:21.201Z,99.90
2023-04-03T04:33:22.915Z,99.90
2023-04-03T04:34:24.663Z,99.90
2023-04-03T04:35:26.434Z,99.90
2023-04-03T04:36:28.435Z,99.90
2023-04-03T04:37:30.685Z,99.90
2023-04-03T04:38:32.397Z,99.90
2023-04-03T04:39:34.136Z,99.90
2023-04-03T04:40:36.412Z,99.90
2023-04-03T04:41:38.168Z,99.90
2023-04-03T04:42:40.024Z,99.90
2023-04-03T04:43:42.017Z,99.90
2023-04-03T04:44:43.892Z,99.90
2023-04-03T04:45:45.791Z,99.90
2023-04-03T04:46:47.648Z,99.90
2023-04-03T04:47:50.860Z,99.90
2023-04-03T04:48:52.646Z,99.90
2023-04-03T04:49:54.414Z,99.90
2023-04-03T04:50:56.213Z,99.90
2023-04-03T04:51:57.958Z,99.90
2023-04-03T04:52:59.717Z,99.90
2023-04-03T04:54:01.452Z,99.90
2023-04-03T04:55:03.496Z,99.90
2023-04-03T04:56:05.759Z,99.90
2023-04-03T04:57:07.638Z,99.90
2023-04-03T04:58:09.437Z,99.90
2023-04-03T04:59:11.311Z,99.90
2023-04-03T05:00:14.060Z,99.90
2023-04-03T05:01:15.844Z,99.90
2023-04-03T05:02:17.823Z,99.90
2023-04-03T05:03:19.556Z,99.90
2023-04-03T05:04:21.832Z,99.90
2023-04-03T05:05:24.284Z,99.90
2023-04-03T05:06:26.303Z,99.90
2023-04-03T05:07:28.014Z,99.90
2023-04-03T05:08:30.361Z,99.90
2023-04-03T05:09:32.175Z,99.90
2023-04-03T05:10:33.891Z,99.90
2023-04-03T05:11:35.752Z,99.90
2023-04-03T05:12:37.534Z,99.90
2023-04-03T05:13:39.263Z,99.90
2023-04-03T05:14:41.035Z,99.90
2023-04-03T05:15:42.799Z,99.90
2023-04-03T05:16:44.571Z,99.90
2023-04-03T05:17:46.453Z,99.90
2023-04-03T05:18:48.302Z,99.90
2023-04-03T05:19:50.301Z,99.90
2023-04-03T05:20:52.068Z,99.90
2023-04-03T05:21:53.842Z,99.90
2023-04-03T05:22:55.649Z,99.90
2023-04-03T05:23:57.387Z,99.90
2023-04-03T05:24:59.150Z,99.90
2023-04-03T05:26:01.046Z,99.90
2023-04-03T05:27:02.784Z,99.90
2023-04-03T05:28:04.732Z,99.90
2023-04-03T05:29:06.571Z,99.90
2023-04-03T05:30:09.058Z,99.90
2023-04-03T05:31:10.907Z,99.90
2023-04-03T05:32:13.061Z,99.90
2023-04-03T05:33:15.114Z,99.90
2023-04-03T05:34:16.923Z,99.90
2023-04-03T05:35:18.744Z,99.90
2023-04-03T05:36:20.587Z,99.90
2023-04-03T05:37:22.546Z,99.90
2023-04-03T05:38:24.526Z,99.90
2023-04-03T05:39:26.522Z,99.90
2023-04-03T05:40:28.302Z,99.90
2023-04-03T05:41:30.431Z,99.90
2023-04-03T05:42:32.474Z,99.90
2023-04-03T05:43:35.589Z,99.90
2023-04-03T05:44:37.346Z,99.90
2023-04-03T05:45:39.128Z,99.90
2023-04-03T05:46:40.945Z,99.90
2023-04-03T05:47:42.681Z,99.90
2023-04-03T05:48:45.373Z,99.90
2023-04-03T05:49:47.152Z,99.90
2023-04-03T05:50:48.975Z,99.90
2023-04-03T05:51:52.326Z,99.90
2023-04-03T05:52:57.826Z,99.90
2023-04-03T05:54:11.260Z,99.90
2023-04-03T05:55:12.973Z,99.90
2023-04-03T05:56:15.426Z,99.90
2023-04-03T05:57:17.423Z,99.90
2023-04-03T05:58:19.181Z,99.90
2023-04-03T05:59:22.086Z,99.90
2023-04-03T06:00:23.948Z,99.90
2023-04-03T06:01:25.666Z,99.90
2023-04-03T06:02:28.021Z,99.90
2023-04-03T06:03:29.985Z,99.90
2023-04-03T06:04:32.093Z,99.90
2023-04-03T06:05:34.120Z,99.90
2023-04-03T06:06:50.365Z,99.90
2023-04-03T06:07:52.380Z,99.90
2023-04-03T06:08:54.164Z,99.90
2023-04-03T06:09:57.581Z,99.90
2023-04-03T06:10:59.395Z,99.90
2023-04-03T06:12:01.185Z,99.90
2023-04-03T06:13:03.116Z,99.90
2023-04-03T06:14:04.836Z,99.90
2023-04-03T06:15:08.895Z,99.90
2023-04-03T06:16:16.297Z,99.90
2023-04-03T06:17:19.475Z,99.90
2023-04-03T06:18:21.514Z,99.90
2023-04-03T06:19:23.346Z,99.90
2023-04-03T06:20:25.897Z,99.90
2023-04-03T06:21:27.727Z,99.90
2023-04-03T06:22:30.986Z,99.90
2023-04-03T06:23:33.741Z,99.90
2023-04-03T06:24:36.441Z,99.90
2023-04-03T06:25:38.320Z,99.90
2023-04-03T06:26:40.061Z,99.90
2023-04-03T06:27:41.756Z,99.90
2023-04-03T06:28:43.557Z,99.90
2023-04-03T06:29:46.352Z,99.90
2023-04-03T06:30:48.097Z,99.90
2023-04-03T06:31:50.990Z,99.90
2023-04-03T06:32:53.148Z,99.90
2023-04-03T06:33:54.876Z,99.90
2023-04-03T06:34:58.080Z,99.90
2023-04-03T06:36:00.197Z,99.90
2023-04-03T06:37:02.024Z,99.90
2023-04-03T06:38:08.783Z,99.90
2023-04-03T06:39:16.087Z,99.90
2023-04-03T06:40:22.731Z,99.90
2023-04-03T06:41:24.501Z,99.90
2023-04-03T06:42:26.348Z,99.90
2023-04-03T06:43:28.165Z,99.90
2023-04-03T06:44:29.941Z,99.90
2023-04-03T06:45:32.209Z,99.90
2023-04-03T06:46:36.709Z,99.90
2023-04-03T06:47:38.508Z,99.90
2023-04-03T06:48:40.773Z,99.90
2023-04-03T06:49:43.714Z,99.90
2023-04-03T06:50:46.054Z,99.90
2023-04-03T06:51:47.770Z,99.90
2023-04-03T06:52:49.582Z,99.90
2023-04-03T06:53:53.437Z,99.90
2023-04-03T06:54:58.109Z,99.90
2023-04-03T06:55:59.833Z,99.90
2023-04-03T06:57:01.693Z,99.90
2023-04-03T06:58:04.961Z,99.90
2023-04-03T06:59:06.762Z,99.90
2023-04-03T07:00:10.747Z,99.90
2023-04-03T07:01:14.053Z,99.90
2023-04-03T07:02:15.774Z,99.90
2023-04-03T07:03:17.489Z,99.90
2023-04-03T07:04:21.301Z,99.90
2023-04-03T07:05:23.208Z,99.90
2023-04-03T07:06:27.986Z,99.90
2023-04-03T07:07:29.983Z,99.90
2023-04-03T07:08:31.999Z,99.90
2023-04-03T07:09:33.925Z,99.90
2023-04-03T07:10:35.662Z,99.90
2023-04-03T07:11:37.728Z,99.90
2023-04-03T07:12:39.475Z,99.90
2023-04-03T07:13:41.469Z,99.90
2023-04-03T07:14:43.672Z,99.90
2023-04-03T07:15:46.218Z,99.90
2023-04-03T07:16:48.202Z,99.90
2023-04-03T07:17:49.975Z,99.90
2023-04-03T07:18:52.107Z,99.90
2023-04-03T07:19:53.978Z,99.90
2023-04-03T07:20:56.422Z,99.90
2023-04-03T07:21:58.257Z,99.90
2023-04-03T07:23:02.168Z,99.90
2023-04-03T07:24:04.721Z,99.90
2023-04-03T07:25:08.170Z,99.90
2023-04-03T07:26:10.143Z,99.90
2023-04-03T07:27:13.679Z,99.90
2023-04-03T07:28:17.084Z,99.90
2023-04-03T07:29:18.949Z,99.90
2023-04-03T07:30:20.945Z,99.90
2023-04-03T07:31:22.772Z,99.90
2023-04-03T07:32:24.593Z,99.90
2023-04-03T07:33:26.475Z,99.90
2023-04-03T07:34:28.463Z,99.90
2023-04-03T07:35:30.602Z,99.90
2023-04-03T07:36:34.385Z,99.90
2023-04-03T07:37:36.582Z,99.90
2023-04-03T07:38:38.730Z,99.90
2023-04-03T07:39:40.699Z,99.90
2023-04-03T07:40:47.946Z,99.90
2023-04-03T07:41:49.735Z,99.90
2023-04-03T07:42:51.819Z,99.90
2023-04-03T07:43:54.008Z,99.90
2023-04-03T07:44:55.895Z,99.90
2023-04-03T07:45:57.918Z,99.90
2023-04-03T07:47:00.882Z,99.90
2023-04-03T07:48:03.021Z,99.90
2023-04-03T07:49:04.953Z,99.90
2023-04-03T07:50:07.376Z,99.90
2023-04-03T07:51:09.131Z,99.90
2023-04-03T07:52:10.933Z,99.90
2023-04-03T07:53:12.844Z,99.90
2023-04-03T07:54:14.644Z,99.90
2023-04-03T07:55:16.435Z,99.90
2023-04-03T07:56:18.427Z,99.90
2023-04-03T07:57:20.570Z,99.90
2023-04-03T07:58:22.449Z,99.90
2023-04-03T07:59:24.153Z,99.90
2023-04-03T08:00:26.084Z,99.90
2023-04-03T08:01:27.816Z,99.90
2023-04-03T08:02:29.682Z,99.90
2023-04-03T08:03:31.768Z,99.90
2023-04-03T08:04:33.816Z,99.90
2023-04-03T08:05:42.261Z,99.90
2023-04-03T08:06:46.999Z,99.90
2023-04-03T08:07:49.413Z,99.90
2023-04-03T08:08:51.494Z,99.90
2023-04-03T08:09:53.383Z,99.90
2023-04-03T08:10:55.575Z,99.90
2023-04-03T08:11:57.310Z,99.90
2023-04-03T08:12:59.043Z,99.90
2023-04-03T08:14:01.105Z,99.90
2023-04-03T08:15:02.942Z,99.90
2023-04-03T08:16:13.352Z,99.90
2023-04-03T08:17:15.142Z,99.90
2023-04-03T08:18:17.147Z,99.90
2023-04-03T08:19:26.237Z,99.90
2023-04-03T08:20:28.976Z,99.90
2023-04-03T08:21:30.828Z,99.90
2023-04-03T08:22:32.591Z,99.90
2023-04-03T08:23:34.329Z,99.90
2023-04-03T08:24:36.476Z,99.90
2023-04-03T08:25:43.671Z,99.90
2023-04-03T08:26:45.492Z,99.90
2023-04-03T08:27:47.449Z,99.90
2023-04-03T08:28:49.538Z,99.90
2023-04-03T08:29:51.413Z,99.90
2023-04-03T08:30:53.151Z,99.90
2023-04-03T08:31:55.699Z,99.90
2023-04-03T08:32:57.429Z,99.90
2023-04-03T08:33:59.245Z,99.90
2023-04-03T08:35:01.333Z,99.90
2023-04-03T08:36:08.575Z,99.90
2023-04-03T08:37:10.531Z,99.90
2023-04-03T08:38:12.387Z,99.90
2023-04-03T08:39:14.268Z,99.90
2023-04-03T08:40:18.039Z,99.90
2023-04-03T08:41:37.708Z,99.90
2023-04-03T08:42:50.175Z,99.90
2023-04-03T08:43:51.866Z,99.90
2023-04-03T08:45:06.547Z,99.90
2023-04-03T08:46:13.859Z,99.90
2023-04-03T08:47:21.669Z,99.90
2023-04-03T08:48:32.079Z,99.90
2023-04-03T08:49:48.152Z,99.90
2023-04-03T08:50:57.681Z,99.90
2023-04-03T08:52:02.052Z,99.90
2023-04-03T08:53:07.626Z,99.90
2023-04-03T08:54:24.266Z,99.90
2023-04-03T08:55:47.985Z,99.90
2023-04-03T08:56:49.748Z,99.90
2023-04-03T08:58:00.999Z,99.90
2023-04-03T08:59:13.196Z,99.90
2023-04-03T09:00:15.103Z,99.90
2023-04-03T09:01:34.540Z,99.90
2023-04-03T09:02:44.295Z,99.90
2023-04-03T09:03:46.196Z,99.90
2023-04-03T09:04:48.142Z,99.90
2023-04-03T09:06:00.431Z,99.90
2023-04-03T09:07:32.686Z,99.90
2023-04-03T09:08:44.143Z,99.90
2023-04-03T09:09:47.199Z,99.90
2023-04-03T09:10:51.394Z,99.90
2023-04-03T09:12:13.882Z,99.90
2023-04-03T09:13:39.453Z,99.90
2023-04-03T09:14:44.971Z,99.90
2023-04-03T09:15:46.720Z,99.90
2023-04-03T09:16:55.660Z,99.90
2023-04-03T09:18:06.991Z,99.90
2023-04-03T09:19:33.209Z,99.90
2023-04-03T09:20:53.867Z,99.90
2023-04-03T09:21:58.585Z,99.90
2023-04-03T09:23:00.600Z,99.90
2023-04-03T09:24:05.009Z,99.90
2023-04-03T09:25:15.097Z,99.90
2023-04-03T09:26:37.601Z,99.90
2023-04-03T09:27:39.751Z,99.90
2023-04-03T09:28:50.564Z,99.90
2023-04-03T09:29:56.102Z,99.90
2023-04-03T09:30:57.874Z,99.90
2023-04-03T09:32:02.439Z,99.90
2023-04-03T09:33:04.731Z,99.90
2023-04-03T09:34:32.665Z,99.90
2023-04-03T09:35:47.551Z,99.90
2023-04-03T09:36:50.163Z,99.90
2023-04-03T09:38:14.221Z,99.90
2023-04-03T09:39:19.147Z,99.90
2023-04-03T09:40:27.121Z,99.70
2023-04-03T09:41:29.361Z,99.90
2023-04-03T09:42:32.230Z,99.20
2023-04-03T09:43:36.263Z,98.80
2023-04-03T09:44:40.070Z,99.30
2023-04-03T09:45:41.825Z,98.10
2023-04-03T09:46:43.932Z,97.60
2023-04-03T09:47:46.161Z,97.10
2023-04-03T09:49:05.194Z,96.80
2023-04-03T09:50:15.548Z,97.40
2023-04-03T09:51:17.451Z,97.50
2023-04-03T09:52:27.397Z,96.80
2023-04-03T09:53:44.306Z,97.60
2023-04-03T09:54:46.320Z,97.60
2023-04-03T09:55:48.081Z,97.70
2023-04-03T09:56:54.448Z,97.90
2023-04-03T09:58:04.871Z,98.20
2023-04-03T09:59:09.407Z,98.50
2023-04-03T10:00:38.867Z,98.40
2023-04-03T10:01:44.168Z,98.60
2023-04-03T10:02:50.672Z,98.70
2023-04-03T10:04:18.220Z,97.10
2023-04-03T10:05:27.834Z,95.90
2023-04-03T10:06:32.579Z,96.50
2023-04-03T10:07:38.230Z,95.70
2023-04-03T10:08:41.301Z,95.20
2023-04-03T10:09:56.599Z,95.00
2023-04-03T10:11:17.876Z,94.40
2023-04-03T10:12:22.046Z,94.60
2023-04-03T10:13:24.085Z,94.90
2023-04-03T10:14:26.163Z,95.30
2023-04-03T10:15:29.647Z,95.40
2023-04-03T10:16:34.882Z,95.40
2023-04-03T10:17:58.736Z,95.20
2023-04-03T10:19:26.173Z,93.40
2023-04-03T10:20:47.896Z,93.50
2023-04-03T10:21:58.192Z,94.10
2023-04-03T10:23:37.249Z,93.20
2023-04-03T10:24:42.007Z,93.10
2023-04-03T10:25:46.606Z,93.80
2023-04-03T10:26:48.352Z,94.40
2023-04-03T10:28:32.050Z,94.30
2023-04-03T10:29:42.810Z,93.60
2023-04-03T10:31:18.246Z,93.10
2023-04-03T10:32:23.689Z,93.00
2023-04-03T10:33:31.366Z,92.70
2023-04-03T10:34:38.260Z,93.40
2023-04-03T10:36:27.506Z,93.80
2023-04-03T10:37:50.625Z,94.00
2023-04-03T10:39:13.947Z,93.10
2023-04-03T10:40:54.133Z,92.80
2023-04-03T10:42:17.345Z,91.00
2023-04-03T10:43:39.362Z,91.60
2023-04-03T10:44:52.847Z,91.50
2023-04-03T10:46:03.120Z,88.30
2023-04-03T10:47:22.768Z,82.20
2023-04-03T10:48:58.178Z,82.80
2023-04-03T10:50:21.836Z,80.80
2023-04-03T10:51:37.449Z,84.00
2023-04-03T10:53:24.029Z,81.00
2023-04-03T10:54:29.206Z,78.60
2023-04-03T10:56:05.130Z,79.80
2023-04-03T10:57:13.079Z,81.30
2023-04-03T10:58:27.814Z,87.20
2023-04-03T10:59:34.558Z,86.60
2023-04-03T11:00:47.309Z,87.70
2023-04-03T11:01:59.044Z,90.30
2023-04-03T11:03:34.098Z,90.80
2023-04-03T11:04:38.781Z,91.50
2023-04-03T11:05:51.500Z,91.50
2023-04-03T11:07:04.280Z,91.80
2023-04-03T11:08:25.242Z,90.90
2023-04-03T11:09:38.855Z,86.40
2023-04-03T11:10:47.576Z,87.20
2023-04-03T11:11:52.478Z,80.60
2023-04-03T11:13:07.918Z,80.20
2023-04-03T11:14:32.769Z,84.20
2023-04-03T11:15:34.669Z,79.30
2023-04-03T11:16:53.438Z,80.60
2023-04-03T11:18:03.103Z,85.30
2023-04-03T11:19:22.504Z,86.80
2023-04-03T11:20:34.040Z,85.20
2023-04-03T11:21:58.184Z,86.60
2023-04-03T11:23:04.895Z,88.40
2023-04-03T11:24:12.269Z,90.50
2023-04-03T11:25:14.010Z,90.40
2023-04-03T11:26:18.069Z,90.00
2023-04-03T11:27:24.591Z,84.40
2023-04-03T11:28:26.360Z,84.40
2023-04-03T11:29:40.586Z,75.20
2023-04-03T11:30:49.292Z,81.20
2023-04-03T11:32:05.074Z,78.40
2023-04-03T11:33:22.885Z,81.20
2023-04-03T11:34:42.648Z,78.40
2023-04-03T11:35:52.788Z,75.40
2023-04-03T11:37:02.896Z,74.80
2023-04-03T11:38:09.407Z,75.00
2023-04-03T11:39:26.621Z,77.60
2023-04-03T11:40:35.599Z,75.70
2023-04-03T11:41:37.614Z,76.10
2023-04-03T11:42:41.861Z,80.00
2023-04-03T11:44:05.590Z,81.10
2023-04-03T11:45:28.270Z,80.10
2023-04-03T11:46:55.650Z,79.60
2023-04-03T11:48:09.935Z,77.30
2023-04-03T11:50:00.863Z,79.00
2023-04-03T11:51:23.199Z,82.80
2023-04-03T11:52:41.622Z,75.00
2023-04-03T11:53:45.951Z,74.20
2023-04-03T11:54:49.302Z,75.50
2023-04-03T11:55:51.092Z,73.00
2023-04-03T11:56:53.008Z,69.60
2023-04-03T11:58:01.345Z,69.00
2023-04-03T11:59:12.608Z,72.00
2023-04-03T12:00:48.028Z,71.00
2023-04-03T12:01:54.560Z,73.70
2023-04-03T12:02:56.432Z,76.30
2023-04-03T12:04:06.873Z,74.00
2023-04-03T12:05:30.799Z,68.80
2023-04-03T12:06:36.803Z,72.00
2023-04-03T12:07:38.671Z,70.40
2023-04-03T12:08:40.351Z,66.20
2023-04-03T12:09:42.163Z,64.50
2023-04-03T12:11:03.846Z,65.60
2023-04-03T12:12:37.756Z,66.60
2023-04-03T12:13:42.753Z,72.30
2023-04-03T12:14:44.540Z,70.40
2023-04-03T12:15:52.258Z,69.90
2023-04-03T12:16:59.016Z,65.20
2023-04-03T12:18:21.835Z,65.80
2023-04-03T12:19:44.286Z,66.10
2023-04-03T12:20:52.413Z,67.60
2023-04-03T12:21:59.133Z,75.80
2023-04-03T12:23:34.006Z,77.40
2023-04-03T12:24:40.844Z,78.20
2023-04-03T12:25:51.496Z,78.90
2023-04-03T12:27:23.376Z,80.50
2023-04-03T12:28:26.018Z,79.30
2023-04-03T12:29:33.975Z,80.60
2023-04-03T12:30:36.844Z,80.10
2023-04-03T12:31:53.633Z,81.70
2023-04-03T12:33:12.538Z,85.20
2023-04-03T12:34:33.452Z,85.20
2023-04-03T12:35:45.936Z,85.20
2023-04-03T12:37:00.686Z,79.60
2023-04-03T12:38:38.432Z,80.80
2023-04-03T12:40:10.614Z,83.20
2023-04-03T12:41:52.704Z,80.00
2023-04-03T12:43:11.324Z,79.60
2023-04-03T12:44:43.135Z,81.60
2023-04-03T12:46:03.205Z,82.00
2023-04-03T12:47:45.659Z,80.30
2023-04-03T12:48:56.255Z,81.90
2023-04-03T12:50:00.356Z,85.20
2023-04-03T12:51:03.482Z,86.80
2023-04-03T12:52:29.636Z,87.20
2023-04-03T12:53:37.517Z,88.40
2023-04-03T12:54:42.926Z,85.90
2023-04-03T12:55:45.404Z,86.30
2023-04-03T12:56:47.317Z,82.80
2023-04-03T12:57:49.491Z,81.00
2023-04-03T12:58:52.801Z,83.40
2023-04-03T12:59:55.890Z,83.40
2023-04-03T13:01:10.962Z,85.20
2023-04-03T13:02:29.918Z,85.60
2023-04-03T13:03:32.231Z,84.50
2023-04-03T13:04:35.504Z,81.90
2023-04-03T13:05:37.891Z,81.20
2023-04-03T13:06:42.658Z,81.10
2023-04-03T13:07:45.134Z,80.10
2023-04-03T13:08:51.981Z,82.30
2023-04-03T13:10:00.016Z,82.40
2023-04-03T13:11:10.807Z,84.60
2023-04-03T13:12:16.240Z,84.90
2023-04-03T13:13:18.179Z,85.10
2023-04-03T13:14:24.567Z,85.70
2023-04-03T13:15:31.057Z,84.70
2023-04-03T13:16:34.932Z,83.10
2023-04-03T13:17:40.856Z,84.20
2023-04-03T13:18:43.062Z,82.20
2023-04-03T13:19:49.761Z,79.60
2023-04-03T13:20:52.283Z,82.80
2023-04-03T13:22:10.046Z,82.90
2023-04-03T13:23:14.551Z,80.70
2023-04-03T13:24:16.566Z,78.80
2023-04-03T13:25:21.236Z,81.40
2023-04-03T13:26:27.095Z,80.90
2023-04-03T13:27:31.229Z,79.30
2023-04-03T13:28:34.268Z,79.90
2023-04-03T13:29:37.824Z,79.90
2023-04-03T13:30:41.433Z,82.00
2023-04-03T13:31:43.475Z,81.90
2023-04-03T13:32:45.740Z,81.50
2023-04-03T13:34:18.667Z,82.20
2023-04-03T13:35:33.390Z,76.90
2023-04-03T13:36:42.483Z,78.80
2023-04-03T13:37:58.634Z,80.00
2023-04-03T13:39:04.207Z,78.80
2023-04-03T13:40:08.735Z,80.00
2023-04-03T13:41:27.285Z,77.70
2023-04-03T13:42:33.369Z,79.30
2023-04-03T13:43:37.892Z,78.50
2023-04-03T13:44:40.562Z,77.60
2023-04-03T13:45:57.476Z,78.80
2023-04-03T13:47:15.876Z,79.10
2023-04-03T13:48:23.861Z,80.20
2023-04-03T13:49:44.711Z,82.60
2023-04-03T13:51:00.761Z,83.70
2023-04-03T13:52:30.330Z,83.90
2023-04-03T13:53:35.165Z,85.40
2023-04-03T13:54:39.614Z,85.30
2023-04-03T13:56:22.189Z,84.60
2023-04-03T13:57:24.382Z,83.20
2023-04-03T13:58:28.359Z,84.00
2023-04-03T13:59:31.754Z,85.40
2023-04-03T14:00:38.898Z,86.20
2023-04-03T14:02:11.863Z,86.00
2023-04-03T14:03:45.390Z,87.90
2023-04-03T14:05:02.124Z,85.40
2023-04-03T14:06:07.361Z,85.30
2023-04-03T14:07:09.349Z,83.20
2023-04-03T14:08:11.126Z,84.70
2023-04-03T14:09:15.554Z,83.20
2023-04-03T14:10:17.699Z,84.50
2023-04-03T14:11:25.830Z,84.70